Search for airport 
image banner adimage banner adimage banner ad
image banner ad

PS65 - Crozer-Chester

Located in Chester, United States

ICAO - PS65, IATA -

Data provided by Airmate  

General information

Coordinates: N39°51'25" W75°22'8"
Elevation is 54 feet MSL.
Magnetic variation is -11° East
View others Airports in Pennsylvania

Operational data

Special qualification required
Current time UTC:
Current local time:
Weather at : KPHL - Philadelphia Intl ( 11 km )
METAR: KPHL 182354Z 22010KT 10SM CLR 24/08 A3025 RMK AO2 SLP244 T02390078 10272 20239 55006
TAF: KPHL 182041Z 1821/1924 23010KT P6SM SKC FM190300 VRB04KT P6SM SKC
View NOTAMs / SUP AIP / TFR affecting this airport [VIEW]
Communications frequencies: [VIEW]

Runways:

Airport contact information

Address: Chester United States

Satellite view of PS65